sensor_id;sensor_type;location;lat;lon;timestamp;P1;durP1;ratioP1;P2;durP2;ratioP2
71734;SDS011;59577;52.122;5.406;2023-04-03T00:00:58;0.70;;;0.35;;
71734;SDS011;59577;52.122;5.406;2023-04-03T00:03:25;1.80;;;0.60;;
71734;SDS011;59577;52.122;5.406;2023-04-03T00:05:52;0.95;;;0.40;;
71734;SDS011;59577;52.122;5.406;2023-04-03T00:08:18;0.30;;;0.10;;
71734;SDS011;59577;52.122;5.406;2023-04-03T00:10:45;1.43;;;0.27;;
71734;SDS011;59577;52.122;5.406;2023-04-03T00:13:12;2.90;;;0.38;;
71734;SDS011;59577;52.122;5.406;2023-04-03T00:15:39;1.30;;;0.40;;
71734;SDS011;59577;52.122;5.406;2023-04-03T00:18:15;1.92;;;0.32;;
71734;SDS011;59577;52.122;5.406;2023-04-03T00:20:41;0.90;;;0.30;;
71734;SDS011;59577;52.122;5.406;2023-04-03T00:23:08;1.13;;;0.13;;
71734;SDS011;59577;52.122;5.406;2023-04-03T00:25:35;1.40;;;0.30;;
71734;SDS011;59577;52.122;5.406;2023-04-03T00:28:02;2.42;;;0.20;;
71734;SDS011;59577;52.122;5.406;2023-04-03T00:30:30;0.95;;;0.30;;
71734;SDS011;59577;52.122;5.406;2023-04-03T00:33:03;1.30;;;0.30;;
71734;SDS011;59577;52.122;5.406;2023-04-03T00:35:30;0.87;;;0.30;;
71734;SDS011;59577;52.122;5.406;2023-04-03T00:37:57;3.85;;;0.38;;
71734;SDS011;59577;52.122;5.406;2023-04-03T00:40:25;1.33;;;0.43;;
71734;SDS011;59577;52.122;5.406;2023-04-03T00:42:57;1.48;;;0.30;;
71734;SDS011;59577;52.122;5.406;2023-04-03T00:45:27;1.13;;;0.40;;
71734;SDS011;59577;52.122;5.406;2023-04-03T00:47:54;1.97;;;0.50;;
71734;SDS011;59577;52.122;5.406;2023-04-03T00:50:22;1.08;;;0.40;;
71734;SDS011;59577;52.122;5.406;2023-04-03T00:52:49;0.90;;;0.35;;
71734;SDS011;59577;52.122;5.406;2023-04-03T00:55:15;2.55;;;0.47;;
71734;SDS011;59577;52.122;5.406;2023-04-03T00:57:45;3.88;;;0.50;;
71734;SDS011;59577;52.122;5.406;2023-04-03T01:00:14;1.10;;;0.50;;
71734;SDS011;59577;52.122;5.406;2023-04-03T01:02:44;1.50;;;0.40;;
71734;SDS011;59577;52.122;5.406;2023-04-03T01:05:11;0.73;;;0.22;;
71734;SDS011;59577;52.122;5.406;2023-04-03T01:07:39;1.90;;;0.30;;
71734;SDS011;59577;52.122;5.406;2023-04-03T01:10:09;0.60;;;0.30;;
71734;SDS011;59577;52.122;5.406;2023-04-03T01:12:38;2.23;;;0.30;;
71734;SDS011;59577;52.122;5.406;2023-04-03T01:17:56;3.42;;;0.40;;
71734;SDS011;59577;52.122;5.406;2023-04-03T01:25:36;2.50;;;0.20;;
71734;SDS011;59577;52.122;5.406;2023-04-03T01:28:13;0.82;;;0.40;;
71734;SDS011;59577;52.122;5.406;2023-04-03T01:33:46;2.78;;;0.30;;
71734;SDS011;59577;52.122;5.406;2023-04-03T01:36:14;0.95;;;0.25;;
71734;SDS011;59577;52.122;5.406;2023-04-03T01:38:47;1.17;;;0.33;;
71734;SDS011;59577;52.122;5.406;2023-04-03T01:41:14;1.85;;;0.40;;
71734;SDS011;59577;52.122;5.406;2023-04-03T01:43:50;0.47;;;0.20;;
71734;SDS011;59577;52.122;5.406;2023-04-03T01:46:16;1.15;;;0.40;;
71734;SDS011;59577;52.122;5.406;2023-04-03T01:48:44;2.08;;;0.40;;
71734;SDS011;59577;52.122;5.406;2023-04-03T01:51:10;2.47;;;0.50;;
71734;SDS011;59577;52.122;5.406;2023-04-03T01:53:37;1.38;;;0.45;;
71734;SDS011;59577;52.122;5.406;2023-04-03T01:56:04;1.10;;;0.40;;
71734;SDS011;59577;52.122;5.406;2023-04-03T01:58:31;1.13;;;0.32;;
71734;SDS011;59577;52.122;5.406;2023-04-03T02:00:58;1.25;;;0.40;;
71734;SDS011;59577;52.122;5.406;2023-04-03T02:03:27;0.90;;;0.40;;
71734;SDS011;59577;52.122;5.406;2023-04-03T02:05:55;2.05;;;0.60;;
71734;SDS011;59577;52.122;5.406;2023-04-03T02:08:22;3.92;;;0.70;;
71734;SDS011;59577;52.122;5.406;2023-04-03T02:10:49;1.92;;;0.38;;
71734;SDS011;59577;52.122;5.406;2023-04-03T02:13:17;5.10;;;0.50;;
71734;SDS011;59577;52.122;5.406;2023-04-03T02:15:44;0.97;;;0.30;;
71734;SDS011;59577;52.122;5.406;2023-04-03T02:18:11;1.98;;;0.30;;
71734;SDS011;59577;52.122;5.406;2023-04-03T02:20:38;1.10;;;0.30;;
71734;SDS011;59577;52.122;5.406;2023-04-03T02:23:05;1.58;;;0.30;;
71734;SDS011;59577;52.122;5.406;2023-04-03T02:25:32;1.95;;;0.50;;
71734;SDS011;59577;52.122;5.406;2023-04-03T02:28:01;1.50;;;0.30;;
71734;SDS011;59577;52.122;5.406;2023-04-03T02:30:28;2.85;;;0.40;;
71734;SDS011;59577;52.122;5.406;2023-04-03T02:32:54;1.52;;;0.40;;
71734;SDS011;59577;52.122;5.406;2023-04-03T02:35:21;2.30;;;0.60;;
71734;SDS011;59577;52.122;5.406;2023-04-03T02:37:48;2.47;;;0.63;;
71734;SDS011;59577;52.122;5.406;2023-04-03T02:40:17;1.87;;;0.40;;
71734;SDS011;59577;52.122;5.406;2023-04-03T02:42:44;2.88;;;0.57;;
71734;SDS011;59577;52.122;5.406;2023-04-03T02:45:11;2.92;;;0.50;;
71734;SDS011;59577;52.122;5.406;2023-04-03T02:47:37;3.03;;;0.50;;
71734;SDS011;59577;52.122;5.406;2023-04-03T02:50:04;1.98;;;0.43;;
71734;SDS011;59577;52.122;5.406;2023-04-03T02:52:45;2.07;;;0.57;;
71734;SDS011;59577;52.122;5.406;2023-04-03T02:55:13;1.80;;;0.45;;
71734;SDS011;59577;52.122;5.406;2023-04-03T02:57:42;2.78;;;0.50;;
71734;SDS011;59577;52.122;5.406;2023-04-03T03:00:08;0.73;;;0.30;;
71734;SDS011;59577;52.122;5.406;2023-04-03T03:02:36;2.63;;;0.40;;
71734;SDS011;59577;52.122;5.406;2023-04-03T03:05:02;0.60;;;0.30;;
71734;SDS011;59577;52.122;5.406;2023-04-03T03:07:29;3.42;;;0.40;;
71734;SDS011;59577;52.122;5.406;2023-04-03T03:09:56;1.75;;;0.43;;
71734;SDS011;59577;52.122;5.406;2023-04-03T03:12:22;1.10;;;0.40;;
71734;SDS011;59577;52.122;5.406;2023-04-03T03:14:50;1.00;;;0.30;;
71734;SDS011;59577;52.122;5.406;2023-04-03T03:17:17;4.00;;;0.50;;
71734;SDS011;59577;52.122;5.406;2023-04-03T03:19:43;2.20;;;0.40;;
71734;SDS011;59577;52.122;5.406;2023-04-03T03:22:11;2.78;;;0.40;;
71734;SDS011;59577;52.122;5.406;2023-04-03T03:24:38;1.15;;;0.38;;
71734;SDS011;59577;52.122;5.406;2023-04-03T03:27:04;0.90;;;0.30;;
71734;SDS011;59577;52.122;5.406;2023-04-03T03:29:31;0.80;;;0.20;;
71734;SDS011;59577;52.122;5.406;2023-04-03T03:31:58;1.00;;;0.13;;
71734;SDS011;59577;52.122;5.406;2023-04-03T03:34:24;2.63;;;0.30;;
71734;SDS011;59577;52.122;5.406;2023-04-03T03:36:51;1.23;;;0.47;;
71734;SDS011;59577;52.122;5.406;2023-04-03T03:39:17;2.67;;;0.43;;
71734;SDS011;59577;52.122;5.406;2023-04-03T03:41:53;1.80;;;0.43;;
71734;SDS011;59577;52.122;5.406;2023-04-03T03:44:19;2.00;;;0.40;;
71734;SDS011;59577;52.122;5.406;2023-04-03T03:46:46;2.78;;;0.40;;
71734;SDS011;59577;52.122;5.406;2023-04-03T03:49:13;2.85;;;0.60;;
71734;SDS011;59577;52.122;5.406;2023-04-03T03:51:40;0.60;;;0.43;;
71734;SDS011;59577;52.122;5.406;2023-04-03T03:54:06;3.37;;;0.70;;
71734;SDS011;59577;52.122;5.406;2023-04-03T03:56:33;4.32;;;0.38;;
71734;SDS011;59577;52.122;5.406;2023-04-03T03:59:00;1.40;;;0.50;;
71734;SDS011;59577;52.122;5.406;2023-04-03T04:01:26;1.58;;;0.35;;
71734;SDS011;59577;52.122;5.406;2023-04-03T04:03:53;0.77;;;0.40;;
71734;SDS011;59577;52.122;5.406;2023-04-03T04:06:21;2.77;;;0.40;;
71734;SDS011;59577;52.122;5.406;2023-04-03T04:08:47;5.35;;;0.40;;
71734;SDS011;59577;52.122;5.406;2023-04-03T04:11:15;0.98;;;0.30;;
71734;SDS011;59577;52.122;5.406;2023-04-03T04:13:41;2.22;;;0.57;;
71734;SDS011;59577;52.122;5.406;2023-04-03T04:16:08;2.25;;;0.40;;
71734;SDS011;59577;52.122;5.406;2023-04-03T04:18:36;1.30;;;0.67;;
71734;SDS011;59577;52.122;5.406;2023-04-03T04:21:02;0.85;;;0.40;;
71734;SDS011;59577;52.122;5.406;2023-04-03T04:23:29;1.40;;;0.45;;
71734;SDS011;59577;52.122;5.406;2023-04-03T04:25:55;1.77;;;0.40;;
71734;SDS011;59577;52.122;5.406;2023-04-03T04:28:31;2.88;;;0.50;;
71734;SDS011;59577;52.122;5.406;2023-04-03T04:30:58;2.30;;;0.70;;
71734;SDS011;59577;52.122;5.406;2023-04-03T04:33:44;0.82;;;0.28;;
71734;SDS011;59577;52.122;5.406;2023-04-03T04:36:13;1.50;;;0.50;;
71734;SDS011;59577;52.122;5.406;2023-04-03T04:38:41;6.50;;;0.75;;
71734;SDS011;59577;52.122;5.406;2023-04-03T04:41:08;2.05;;;0.57;;
71734;SDS011;59577;52.122;5.406;2023-04-03T04:43:34;1.50;;;0.70;;
71734;SDS011;59577;52.122;5.406;2023-04-03T04:46:07;4.72;;;0.60;;
71734;SDS011;59577;52.122;5.406;2023-04-03T04:48:40;1.55;;;0.57;;
71734;SDS011;59577;52.122;5.406;2023-04-03T04:51:07;2.50;;;0.50;;
71734;SDS011;59577;52.122;5.406;2023-04-03T04:53:34;1.08;;;0.55;;
71734;SDS011;59577;52.122;5.406;2023-04-03T04:56:01;2.33;;;0.60;;
71734;SDS011;59577;52.122;5.406;2023-04-03T04:58:28;0.73;;;0.30;;
71734;SDS011;59577;52.122;5.406;2023-04-03T05:00:58;2.25;;;0.47;;
71734;SDS011;59577;52.122;5.406;2023-04-03T05:03:29;5.32;;;0.75;;
71734;SDS011;59577;52.122;5.406;2023-04-03T05:05:56;1.20;;;0.40;;
71734;SDS011;59577;52.122;5.406;2023-04-03T05:08:22;1.37;;;0.50;;
71734;SDS011;59577;52.122;5.406;2023-04-03T05:10:49;2.92;;;0.70;;
71734;SDS011;59577;52.122;5.406;2023-04-03T05:13:16;5.05;;;0.60;;
71734;SDS011;59577;52.122;5.406;2023-04-03T05:15:42;2.05;;;0.50;;
71734;SDS011;59577;52.122;5.406;2023-04-03T05:18:09;2.85;;;0.70;;
71734;SDS011;59577;52.122;5.406;2023-04-03T05:20:35;1.07;;;0.40;;
71734;SDS011;59577;52.122;5.406;2023-04-03T05:23:08;1.10;;;0.47;;
71734;SDS011;59577;52.122;5.406;2023-04-03T05:25:38;2.53;;;1.33;;
71734;SDS011;59577;52.122;5.406;2023-04-03T05:28:05;1.80;;;0.82;;
71734;SDS011;59577;52.122;5.406;2023-04-03T05:30:34;3.15;;;0.60;;
71734;SDS011;59577;52.122;5.406;2023-04-03T05:33:01;2.90;;;0.70;;
71734;SDS011;59577;52.122;5.406;2023-04-03T05:35:28;2.42;;;0.73;;
71734;SDS011;59577;52.122;5.406;2023-04-03T05:37:55;2.80;;;0.80;;
71734;SDS011;59577;52.122;5.406;2023-04-03T05:40:21;2.58;;;0.60;;
71734;SDS011;59577;52.122;5.406;2023-04-03T05:42:48;2.58;;;0.65;;
71734;SDS011;59577;52.122;5.406;2023-04-03T05:45:15;6.87;;;0.83;;
71734;SDS011;59577;52.122;5.406;2023-04-03T05:47:41;1.55;;;0.63;;
71734;SDS011;59577;52.122;5.406;2023-04-03T05:50:08;9.02;;;1.33;;
71734;SDS011;59577;52.122;5.406;2023-04-03T05:52:36;6.03;;;1.10;;
71734;SDS011;59577;52.122;5.406;2023-04-03T05:55:04;3.70;;;0.60;;
71734;SDS011;59577;52.122;5.406;2023-04-03T05:57:31;1.20;;;0.50;;
71734;SDS011;59577;52.122;5.406;2023-04-03T05:59:58;1.55;;;0.40;;
71734;SDS011;59577;52.122;5.406;2023-04-03T06:02:24;2.10;;;0.65;;
71734;SDS011;59577;52.122;5.406;2023-04-03T06:04:52;2.50;;;1.15;;
71734;SDS011;59577;52.122;5.406;2023-04-03T06:07:20;3.05;;;0.75;;
71734;SDS011;59577;52.122;5.406;2023-04-03T06:09:49;1.43;;;0.40;;
71734;SDS011;59577;52.122;5.406;2023-04-03T06:12:17;1.70;;;0.75;;
71734;SDS011;59577;52.122;5.406;2023-04-03T06:14:45;3.45;;;0.50;;
71734;SDS011;59577;52.122;5.406;2023-04-03T06:17:11;3.20;;;0.70;;
71734;SDS011;59577;52.122;5.406;2023-04-03T06:19:38;3.72;;;0.75;;
71734;SDS011;59577;52.122;5.406;2023-04-03T06:22:06;2.23;;;0.50;;
71734;SDS011;59577;52.122;5.406;2023-04-03T06:24:42;4.35;;;0.40;;
71734;SDS011;59577;52.122;5.406;2023-04-03T06:27:10;5.80;;;0.70;;
71734;SDS011;59577;52.122;5.406;2023-04-03T06:29:37;4.13;;;0.60;;
71734;SDS011;59577;52.122;5.406;2023-04-03T06:32:04;3.03;;;0.52;;
71734;SDS011;59577;52.122;5.406;2023-04-03T06:34:31;3.57;;;0.60;;
71734;SDS011;59577;52.122;5.406;2023-04-03T06:36:58;3.70;;;0.77;;
71734;SDS011;59577;52.122;5.406;2023-04-03T06:41:55;2.45;;;0.68;;
71734;SDS011;59577;52.122;5.406;2023-04-03T06:44:23;5.28;;;0.82;;
71734;SDS011;59577;52.122;5.406;2023-04-03T06:47:04;1.60;;;0.50;;
71734;SDS011;59577;52.122;5.406;2023-04-03T06:49:31;2.95;;;0.55;;
71734;SDS011;59577;52.122;5.406;2023-04-03T06:51:58;2.17;;;0.60;;
71734;SDS011;59577;52.122;5.406;2023-04-03T06:54:27;6.55;;;0.60;;
71734;SDS011;59577;52.122;5.406;2023-04-03T06:56:54;3.83;;;0.65;;
71734;SDS011;59577;52.122;5.406;2023-04-03T06:59:20;1.37;;;0.60;;
71734;SDS011;59577;52.122;5.406;2023-04-03T07:01:47;1.58;;;0.55;;
71734;SDS011;59577;52.122;5.406;2023-04-03T07:04:14;4.88;;;0.60;;
71734;SDS011;59577;52.122;5.406;2023-04-03T07:06:41;4.32;;;0.63;;
71734;SDS011;59577;52.122;5.406;2023-04-03T07:09:09;7.50;;;0.70;;
71734;SDS011;59577;52.122;5.406;2023-04-03T07:11:37;2.97;;;0.60;;
71734;SDS011;59577;52.122;5.406;2023-04-03T07:14:03;1.13;;;0.50;;
71734;SDS011;59577;52.122;5.406;2023-04-03T07:16:30;4.45;;;0.77;;
71734;SDS011;59577;52.122;5.406;2023-04-03T07:18:57;3.33;;;0.63;;
71734;SDS011;59577;52.122;5.406;2023-04-03T07:21:24;2.33;;;0.50;;
71734;SDS011;59577;52.122;5.406;2023-04-03T07:23:57;1.80;;;0.40;;
71734;SDS011;59577;52.122;5.406;2023-04-03T07:26:48;4.25;;;1.23;;
71734;SDS011;59577;52.122;5.406;2023-04-03T07:29:18;1.58;;;0.50;;
71734;SDS011;59577;52.122;5.406;2023-04-03T07:31:48;3.75;;;0.70;;
71734;SDS011;59577;52.122;5.406;2023-04-03T07:34:15;2.35;;;0.50;;
71734;SDS011;59577;52.122;5.406;2023-04-03T07:36:42;1.90;;;0.60;;
71734;SDS011;59577;52.122;5.406;2023-04-03T07:39:22;2.92;;;0.70;;
71734;SDS011;59577;52.122;5.406;2023-04-03T07:41:49;3.17;;;0.70;;
71734;SDS011;59577;52.122;5.406;2023-04-03T07:44:25;3.40;;;0.70;;
71734;SDS011;59577;52.122;5.406;2023-04-03T07:46:51;2.38;;;0.40;;
71734;SDS011;59577;52.122;5.406;2023-04-03T07:49:18;1.97;;;0.70;;
71734;SDS011;59577;52.122;5.406;2023-04-03T07:51:59;1.77;;;0.73;;
71734;SDS011;59577;52.122;5.406;2023-04-03T07:54:25;2.38;;;0.80;;
71734;SDS011;59577;52.122;5.406;2023-04-03T07:56:58;2.08;;;0.63;;
71734;SDS011;59577;52.122;5.406;2023-04-03T07:59:25;2.42;;;0.70;;
71734;SDS011;59577;52.122;5.406;2023-04-03T08:02:05;2.10;;;0.70;;
71734;SDS011;59577;52.122;5.406;2023-04-03T08:04:32;1.90;;;0.52;;
71734;SDS011;59577;52.122;5.406;2023-04-03T08:07:00;1.90;;;0.60;;
71734;SDS011;59577;52.122;5.406;2023-04-03T08:09:41;2.35;;;0.70;;
71734;SDS011;59577;52.122;5.406;2023-04-03T08:12:08;2.90;;;0.90;;
71734;SDS011;59577;52.122;5.406;2023-04-03T08:14:49;3.63;;;0.80;;
71734;SDS011;59577;52.122;5.406;2023-04-03T08:17:15;1.77;;;0.65;;
71734;SDS011;59577;52.122;5.406;2023-04-03T08:19:42;2.28;;;0.45;;
71734;SDS011;59577;52.122;5.406;2023-04-03T08:22:21;2.50;;;0.70;;
71734;SDS011;59577;52.122;5.406;2023-04-03T08:24:47;1.88;;;0.50;;
71734;SDS011;59577;52.122;5.406;2023-04-03T08:27:39;2.40;;;0.50;;
71734;SDS011;59577;52.122;5.406;2023-04-03T08:30:06;2.90;;;0.50;;
71734;SDS011;59577;52.122;5.406;2023-04-03T08:39:12;3.53;;;0.60;;
71734;SDS011;59577;52.122;5.406;2023-04-03T08:41:39;3.53;;;0.60;;
71734;SDS011;59577;52.122;5.406;2023-04-03T08:47:53;4.63;;;0.50;;
71734;SDS011;59577;52.122;5.406;2023-04-03T08:54:06;1.30;;;0.40;;
71734;SDS011;59577;52.122;5.406;2023-04-03T08:56:44;1.38;;;0.30;;
71734;SDS011;59577;52.122;5.406;2023-04-03T08:59:22;0.82;;;0.20;;
71734;SDS011;59577;52.122;5.406;2023-04-03T09:01:54;2.33;;;0.20;;
71734;SDS011;59577;52.122;5.406;2023-04-03T09:04:39;0.93;;;0.30;;
71734;SDS011;59577;52.122;5.406;2023-04-03T09:07:12;2.17;;;0.50;;
71734;SDS011;59577;52.122;5.406;2023-04-03T09:09:55;0.80;;;0.20;;
71734;SDS011;59577;52.122;5.406;2023-04-03T09:12:41;1.35;;;0.30;;
71734;SDS011;59577;52.122;5.406;2023-04-03T09:15:25;0.60;;;0.20;;
71734;SDS011;59577;52.122;5.406;2023-04-03T09:20:54;2.03;;;0.20;;
71734;SDS011;59577;52.122;5.406;2023-04-03T09:29:47;1.45;;;0.20;;
71734;SDS011;59577;52.122;5.406;2023-04-03T09:35:26;1.38;;;0.20;;
71734;SDS011;59577;52.122;5.406;2023-04-03T09:38:20;0.25;;;0.10;;
71734;SDS011;59577;52.122;5.406;2023-04-03T09:43:54;0.60;;;0.20;;
71734;SDS011;59577;52.122;5.406;2023-04-03T09:46:28;0.80;;;0.40;;
71734;SDS011;59577;52.122;5.406;2023-04-03T09:49:41;0.32;;;0.20;;
71734;SDS011;59577;52.122;5.406;2023-04-03T09:52:22;0.70;;;0.20;;
71734;SDS011;59577;52.122;5.406;2023-04-03T09:55:06;0.57;;;0.10;;
71734;SDS011;59577;52.122;5.406;2023-04-03T09:57:34;0.82;;;0.20;;
71734;SDS011;59577;52.122;5.406;2023-04-03T10:00:03;1.05;;;0.28;;
71734;SDS011;59577;52.122;5.406;2023-04-03T10:02:45;0.80;;;0.10;;
71734;SDS011;59577;52.122;5.406;2023-04-03T10:05:37;0.85;;;0.22;;
71734;SDS011;59577;52.122;5.406;2023-04-03T10:08:28;0.60;;;0.20;;
71734;SDS011;59577;52.122;5.406;2023-04-03T10:13:49;0.57;;;0.10;;
71734;SDS011;59577;52.122;5.406;2023-04-03T10:35:18;0.63;;;0.10;;
71734;SDS011;59577;52.122;5.406;2023-04-03T10:38:20;0.55;;;0.10;;
71734;SDS011;59577;52.122;5.406;2023-04-03T10:41:15;0.80;;;0.17;;
71734;SDS011;59577;52.122;5.406;2023-04-03T10:46:52;1.20;;;0.10;;
71734;SDS011;59577;52.122;5.406;2023-04-03T10:55:15;0.50;;;0.10;;
71734;SDS011;59577;52.122;5.406;2023-04-03T10:57:43;0.68;;;0.20;;
71734;SDS011;59577;52.122;5.406;2023-04-03T11:00:21;0.50;;;0.10;;
71734;SDS011;59577;52.122;5.406;2023-04-03T11:02:52;0.30;;;0.10;;
71734;SDS011;59577;52.122;5.406;2023-04-03T11:05:52;0.43;;;0.10;;
71734;SDS011;59577;52.122;5.406;2023-04-03T11:08:24;0.60;;;0.20;;
71734;SDS011;59577;52.122;5.406;2023-04-03T11:11:09;0.95;;;0.17;;
71734;SDS011;59577;52.122;5.406;2023-04-03T11:26:08;1.10;;;0.20;;
71734;SDS011;59577;52.122;5.406;2023-04-03T11:28:59;2.80;;;0.20;;
71734;SDS011;59577;52.122;5.406;2023-04-03T11:34:50;0.88;;;0.20;;
71734;SDS011;59577;52.122;5.406;2023-04-03T11:40:21;1.85;;;0.20;;
71734;SDS011;59577;52.122;5.406;2023-04-03T11:43:24;0.38;;;0.15;;
71734;SDS011;59577;52.122;5.406;2023-04-03T11:46:09;0.50;;;0.10;;
71734;SDS011;59577;52.122;5.406;2023-04-03T11:53:55;0.77;;;0.20;;
71734;SDS011;59577;52.122;5.406;2023-04-03T12:08:46;1.20;;;0.20;;
71734;SDS011;59577;52.122;5.406;2023-04-03T12:11:32;1.05;;;0.30;;
71734;SDS011;59577;52.122;5.406;2023-04-03T12:14:04;0.40;;;0.10;;
71734;SDS011;59577;52.122;5.406;2023-04-03T12:16:54;1.08;;;0.10;;
71734;SDS011;59577;52.122;5.406;2023-04-03T12:19:29;1.05;;;0.20;;
71734;SDS011;59577;52.122;5.406;2023-04-03T12:22:14;1.05;;;0.20;;
71734;SDS011;59577;52.122;5.406;2023-04-03T12:24:52;1.58;;;0.20;;
71734;SDS011;59577;52.122;5.406;2023-04-03T12:27:26;0.37;;;0.20;;
71734;SDS011;59577;52.122;5.406;2023-04-03T12:30:18;2.30;;;0.22;;
71734;SDS011;59577;52.122;5.406;2023-04-03T12:35:57;0.68;;;0.20;;
71734;SDS011;59577;52.122;5.406;2023-04-03T12:38:52;0.75;;;0.28;;
71734;SDS011;59577;52.122;5.406;2023-04-03T12:47:48;1.25;;;0.20;;
71734;SDS011;59577;52.122;5.406;2023-04-03T12:50:30;1.55;;;0.20;;
71734;SDS011;59577;52.122;5.406;2023-04-03T12:52:59;1.30;;;0.20;;
71734;SDS011;59577;52.122;5.406;2023-04-03T12:55:30;1.67;;;0.27;;
71734;SDS011;59577;52.122;5.406;2023-04-03T12:57:57;1.85;;;0.20;;
71734;SDS011;59577;52.122;5.406;2023-04-03T13:00:43;1.48;;;0.32;;
71734;SDS011;59577;52.122;5.406;2023-04-03T13:03:19;2.58;;;0.20;;
71734;SDS011;59577;52.122;5.406;2023-04-03T13:06:01;0.88;;;0.20;;
71734;SDS011;59577;52.122;5.406;2023-04-03T13:08:29;1.60;;;0.37;;
71734;SDS011;59577;52.122;5.406;2023-04-03T13:11:14;2.85;;;0.20;;
71734;SDS011;59577;52.122;5.406;2023-04-03T13:13:53;1.38;;;0.20;;
71734;SDS011;59577;52.122;5.406;2023-04-03T13:16:34;0.50;;;0.20;;
71734;SDS011;59577;52.122;5.406;2023-04-03T13:19:01;0.95;;;0.20;;
71734;SDS011;59577;52.122;5.406;2023-04-03T13:21:28;0.60;;;0.20;;
71734;SDS011;59577;52.122;5.406;2023-04-03T13:24:10;2.88;;;0.22;;
71734;SDS011;59577;52.122;5.406;2023-04-03T13:26:47;0.60;;;0.20;;
71734;SDS011;59577;52.122;5.406;2023-04-03T13:29:24;0.63;;;0.10;;
71734;SDS011;59577;52.122;5.406;2023-04-03T13:32:18;1.33;;;0.30;;
71734;SDS011;59577;52.122;5.406;2023-04-03T13:34:50;0.90;;;0.20;;
71734;SDS011;59577;52.122;5.406;2023-04-03T13:37:23;2.47;;;0.22;;
71734;SDS011;59577;52.122;5.406;2023-04-03T13:42:35;1.52;;;0.30;;
71734;SDS011;59577;52.122;5.406;2023-04-03T13:45:11;0.88;;;0.20;;
71734;SDS011;59577;52.122;5.406;2023-04-03T13:47:44;0.70;;;0.20;;
71734;SDS011;59577;52.122;5.406;2023-04-03T13:50:22;1.65;;;0.20;;
71734;SDS011;59577;52.122;5.406;2023-04-03T13:52:59;3.47;;;0.30;;
71734;SDS011;59577;52.122;5.406;2023-04-03T13:58:26;1.40;;;0.20;;
71734;SDS011;59577;52.122;5.406;2023-04-03T14:06:12;1.23;;;0.20;;
71734;SDS011;59577;52.122;5.406;2023-04-03T14:08:41;2.08;;;0.32;;
71734;SDS011;59577;52.122;5.406;2023-04-03T14:11:18;1.02;;;0.20;;
71734;SDS011;59577;52.122;5.406;2023-04-03T14:13:48;1.83;;;0.20;;
71734;SDS011;59577;52.122;5.406;2023-04-03T14:16:20;2.00;;;0.20;;
71734;SDS011;59577;52.122;5.406;2023-04-03T14:18:58;2.95;;;0.15;;
71734;SDS011;59577;52.122;5.406;2023-04-03T14:21:24;0.60;;;0.30;;
71734;SDS011;59577;52.122;5.406;2023-04-03T14:23:52;0.90;;;0.20;;
71734;SDS011;59577;52.122;5.406;2023-04-03T14:26:27;2.60;;;0.20;;
71734;SDS011;59577;52.122;5.406;2023-04-03T14:29:12;1.42;;;0.20;;
71734;SDS011;59577;52.122;5.406;2023-04-03T14:31:39;1.60;;;0.38;;
71734;SDS011;59577;52.122;5.406;2023-04-03T14:34:09;4.55;;;0.30;;
71734;SDS011;59577;52.122;5.406;2023-04-03T14:36:43;0.70;;;0.20;;
71734;SDS011;59577;52.122;5.406;2023-04-03T14:39:13;3.43;;;0.20;;
71734;SDS011;59577;52.122;5.406;2023-04-03T14:41:44;1.55;;;0.35;;
71734;SDS011;59577;52.122;5.406;2023-04-03T14:44:11;1.20;;;0.38;;
71734;SDS011;59577;52.122;5.406;2023-04-03T14:46:39;2.95;;;0.20;;
71734;SDS011;59577;52.122;5.406;2023-04-03T14:49:23;4.13;;;0.40;;
71734;SDS011;59577;52.122;5.406;2023-04-03T14:51:54;0.50;;;0.27;;
71734;SDS011;59577;52.122;5.406;2023-04-03T14:54:22;3.50;;;0.30;;
71734;SDS011;59577;52.122;5.406;2023-04-03T14:56:55;0.70;;;0.22;;
71734;SDS011;59577;52.122;5.406;2023-04-03T14:59:38;6.50;;;0.60;;
71734;SDS011;59577;52.122;5.406;2023-04-03T15:02:29;1.95;;;0.47;;
71734;SDS011;59577;52.122;5.406;2023-04-03T15:04:57;2.20;;;0.30;;
71734;SDS011;59577;52.122;5.406;2023-04-03T15:07:25;2.58;;;0.63;;
71734;SDS011;59577;52.122;5.406;2023-04-03T15:09:54;2.30;;;0.38;;
71734;SDS011;59577;52.122;5.406;2023-04-03T15:12:24;0.68;;;0.20;;
71734;SDS011;59577;52.122;5.406;2023-04-03T15:14:51;2.35;;;0.50;;
71734;SDS011;59577;52.122;5.406;2023-04-03T15:17:27;0.87;;;0.20;;
71734;SDS011;59577;52.122;5.406;2023-04-03T15:19:53;1.10;;;0.22;;
71734;SDS011;59577;52.122;5.406;2023-04-03T15:22:20;1.42;;;0.30;;
71734;SDS011;59577;52.122;5.406;2023-04-03T15:24:47;3.22;;;0.40;;
71734;SDS011;59577;52.122;5.406;2023-04-03T15:27:22;0.98;;;0.28;;
71734;SDS011;59577;52.122;5.406;2023-04-03T15:29:49;1.73;;;0.30;;
71734;SDS011;59577;52.122;5.406;2023-04-03T15:32:16;3.72;;;0.30;;
71734;SDS011;59577;52.122;5.406;2023-04-03T15:34:42;1.55;;;0.30;;
71734;SDS011;59577;52.122;5.406;2023-04-03T15:37:09;3.20;;;0.30;;
71734;SDS011;59577;52.122;5.406;2023-04-03T15:39:36;1.60;;;0.70;;
71734;SDS011;59577;52.122;5.406;2023-04-03T15:42:02;2.00;;;0.30;;
71734;SDS011;59577;52.122;5.406;2023-04-03T15:44:34;1.80;;;0.30;;
71734;SDS011;59577;52.122;5.406;2023-04-03T15:47:01;2.80;;;0.40;;
71734;SDS011;59577;52.122;5.406;2023-04-03T15:49:28;1.58;;;0.50;;
71734;SDS011;59577;52.122;5.406;2023-04-03T15:51:55;1.63;;;0.40;;
71734;SDS011;59577;52.122;5.406;2023-04-03T15:54:22;0.50;;;0.30;;
71734;SDS011;59577;52.122;5.406;2023-04-03T15:56:59;1.95;;;0.38;;
71734;SDS011;59577;52.122;5.406;2023-04-03T15:59:34;1.70;;;0.50;;
71734;SDS011;59577;52.122;5.406;2023-04-03T16:02:01;1.88;;;0.40;;
71734;SDS011;59577;52.122;5.406;2023-04-03T16:04:37;2.25;;;0.40;;
71734;SDS011;59577;52.122;5.406;2023-04-03T16:07:15;0.77;;;0.23;;
71734;SDS011;59577;52.122;5.406;2023-04-03T16:09:45;1.67;;;0.40;;
71734;SDS011;59577;52.122;5.406;2023-04-03T16:12:18;3.10;;;0.32;;
71734;SDS011;59577;52.122;5.406;2023-04-03T16:14:47;1.15;;;0.32;;
71734;SDS011;59577;52.122;5.406;2023-04-03T16:17:13;1.23;;;0.32;;
71734;SDS011;59577;52.122;5.406;2023-04-03T16:19:40;1.53;;;0.30;;
71734;SDS011;59577;52.122;5.406;2023-04-03T16:22:07;4.38;;;0.32;;
71734;SDS011;59577;52.122;5.406;2023-04-03T16:24:34;2.17;;;0.52;;
71734;SDS011;59577;52.122;5.406;2023-04-03T16:27:09;1.38;;;0.60;;
71734;SDS011;59577;52.122;5.406;2023-04-03T16:29:35;2.80;;;0.32;;
71734;SDS011;59577;52.122;5.406;2023-04-03T16:32:02;3.27;;;0.40;;
71734;SDS011;59577;52.122;5.406;2023-04-03T16:34:29;2.35;;;0.47;;
71734;SDS011;59577;52.122;5.406;2023-04-03T16:36:58;1.75;;;0.40;;
71734;SDS011;59577;52.122;5.406;2023-04-03T16:39:25;1.98;;;0.40;;
71734;SDS011;59577;52.122;5.406;2023-04-03T16:41:51;2.47;;;0.30;;
71734;SDS011;59577;52.122;5.406;2023-04-03T16:44:18;3.93;;;0.30;;
71734;SDS011;59577;52.122;5.406;2023-04-03T16:46:44;2.25;;;0.30;;
71734;SDS011;59577;52.122;5.406;2023-04-03T16:49:13;2.17;;;0.32;;
71734;SDS011;59577;52.122;5.406;2023-04-03T16:51:39;1.63;;;0.30;;
71734;SDS011;59577;52.122;5.406;2023-04-03T16:54:06;4.45;;;0.25;;
71734;SDS011;59577;52.122;5.406;2023-04-03T16:56:33;0.77;;;0.30;;
71734;SDS011;59577;52.122;5.406;2023-04-03T16:58:59;4.80;;;0.50;;
71734;SDS011;59577;52.122;5.406;2023-04-03T17:01:26;3.75;;;0.28;;
71734;SDS011;59577;52.122;5.406;2023-04-03T17:03:52;1.77;;;0.30;;
71734;SDS011;59577;52.122;5.406;2023-04-03T17:06:20;2.33;;;0.38;;
71734;SDS011;59577;52.122;5.406;2023-04-03T17:08:50;1.10;;;0.40;;
71734;SDS011;59577;52.122;5.406;2023-04-03T17:11:18;1.38;;;0.40;;
71734;SDS011;59577;52.122;5.406;2023-04-03T17:13:44;1.10;;;0.40;;
71734;SDS011;59577;52.122;5.406;2023-04-03T17:16:12;2.08;;;0.25;;
71734;SDS011;59577;52.122;5.406;2023-04-03T17:18:41;1.98;;;0.60;;
71734;SDS011;59577;52.122;5.406;2023-04-03T17:21:09;2.00;;;0.40;;